createdAt,value
2023-04-08T00:00:30.443Z,2.90
2023-04-08T00:02:57.431Z,3.42
2023-04-08T00:05:24.410Z,2.80
2023-04-08T00:07:51.249Z,3.50
2023-04-08T00:10:18.339Z,3.90
2023-04-08T00:12:45.281Z,4.75
2023-04-08T00:15:12.121Z,4.85
2023-04-08T00:17:39.032Z,5.20
2023-04-08T00:20:06.381Z,3.75
2023-04-08T00:22:33.251Z,4.00
2023-04-08T00:25:00.180Z,3.72
2023-04-08T00:27:27.004Z,3.10
2023-04-08T00:29:53.858Z,3.05
2023-04-08T00:32:20.935Z,3.13
2023-04-08T00:34:47.854Z,2.63
2023-04-08T00:37:14.592Z,4.18
2023-04-08T00:39:41.458Z,3.10
2023-04-08T00:42:08.312Z,2.85
2023-04-08T00:44:35.364Z,3.17
2023-04-08T00:47:03.685Z,3.10
2023-04-08T00:49:33.666Z,3.33
2023-04-08T00:52:00.663Z,3.45
2023-04-08T00:54:27.647Z,2.90
2023-04-08T00:56:54.512Z,4.88
2023-04-08T00:59:21.617Z,5.90
2023-04-08T01:01:57.838Z,5.45
2023-04-08T01:04:39.539Z,5.22
2023-04-08T01:07:18.194Z,5.28
2023-04-08T01:09:56.996Z,5.72
2023-04-08T01:12:32.618Z,5.53
2023-04-08T01:15:07.129Z,5.18
2023-04-08T01:17:36.117Z,4.00
2023-04-08T01:20:04.917Z,4.68
2023-04-08T01:22:52.122Z,4.22
2023-04-08T01:25:24.460Z,3.70
2023-04-08T01:27:53.095Z,3.13
2023-04-08T01:30:23.636Z,3.45
2023-04-08T01:32:53.783Z,3.20
2023-04-08T01:35:21.074Z,3.75
2023-04-08T01:37:50.362Z,5.47
2023-04-08T01:40:18.935Z,5.28
2023-04-08T01:42:48.432Z,4.15
2023-04-08T01:45:16.784Z,3.25
2023-04-08T01:47:45.880Z,3.40
2023-04-08T01:50:13.863Z,3.40
2023-04-08T01:52:41.481Z,3.67
2023-04-08T01:55:08.493Z,3.33
2023-04-08T01:57:38.300Z,3.30
2023-04-08T02:00:09.097Z,3.60
2023-04-08T02:02:38.225Z,3.20
2023-04-08T02:05:05.700Z,4.10
2023-04-08T02:07:32.647Z,4.93
2023-04-08T02:09:59.494Z,4.65
2023-04-08T02:12:27.601Z,5.45
2023-04-08T02:14:55.560Z,4.07
2023-04-08T02:17:35.735Z,4.30
2023-04-08T02:20:07.321Z,3.92
2023-04-08T02:23:10.757Z,4.55
2023-04-08T02:25:40.448Z,4.47
2023-04-08T02:28:10.873Z,3.60
2023-04-08T02:30:41.895Z,4.38
2023-04-08T02:33:09.454Z,4.80
2023-04-08T02:35:37.083Z,4.32
2023-04-08T02:38:04.303Z,4.10
2023-04-08T02:40:33.158Z,3.90
2023-04-08T02:43:00.543Z,3.88
2023-04-08T02:45:31.222Z,4.07
2023-04-08T02:48:00.334Z,4.03
2023-04-08T02:50:27.545Z,3.80
2023-04-08T02:52:54.685Z,3.77
2023-04-08T02:55:21.630Z,3.20
2023-04-08T02:57:49.289Z,3.50
2023-04-08T03:00:16.833Z,3.60
2023-04-08T03:02:43.812Z,3.40
2023-04-08T03:05:10.832Z,3.40
2023-04-08T03:07:38.084Z,3.28
2023-04-08T03:10:05.738Z,4.07
2023-04-08T03:12:32.579Z,6.72
2023-04-08T03:14:59.548Z,7.90
2023-04-08T03:17:26.494Z,8.27
2023-04-08T03:19:53.520Z,7.63
2023-04-08T03:22:20.458Z,5.68
2023-04-08T03:24:47.319Z,5.28
2023-04-08T03:27:14.280Z,4.05
2023-04-08T03:29:41.336Z,3.80
2023-04-08T03:32:08.634Z,3.60
2023-04-08T03:34:35.789Z,4.00
2023-04-08T03:37:03.077Z,3.35
2023-04-08T03:39:30.010Z,3.95
2023-04-08T03:41:56.961Z,3.30
2023-04-08T03:44:23.895Z,3.40
2023-04-08T03:46:50.722Z,3.08
2023-04-08T03:49:17.594Z,3.28
2023-04-08T03:51:44.471Z,3.97
2023-04-08T03:54:11.358Z,3.80
2023-04-08T03:56:38.233Z,3.95
2023-04-08T03:59:05.304Z,4.30
2023-04-08T04:01:32.179Z,4.22
2023-04-08T04:03:59.550Z,5.47
2023-04-08T04:06:26.706Z,4.80
2023-04-08T04:08:54.634Z,5.30
2023-04-08T04:11:21.522Z,4.82
2023-04-08T04:13:49.086Z,4.88
2023-04-08T04:16:16.114Z,5.45
2023-04-08T04:18:43.077Z,4.90
2023-04-08T04:21:10.141Z,5.10
2023-04-08T04:23:36.956Z,5.57
2023-04-08T04:26:09.102Z,5.78
2023-04-08T04:28:36.191Z,9.18
2023-04-08T04:31:03.066Z,15.47
2023-04-08T04:33:30.298Z,13.13
2023-04-08T04:35:57.477Z,13.43
2023-04-08T04:38:24.381Z,18.55
2023-04-08T04:40:51.155Z,16.55
2023-04-08T04:43:18.215Z,14.27
2023-04-08T04:45:45.065Z,11.18
2023-04-08T04:48:11.994Z,12.82
2023-04-08T04:50:38.904Z,11.60
2023-04-08T04:53:05.673Z,14.00
2023-04-08T04:55:32.635Z,14.77
2023-04-08T04:57:59.544Z,11.50
2023-04-08T05:00:26.409Z,12.63
2023-04-08T05:02:53.489Z,13.57
2023-04-08T05:05:20.670Z,15.23
2023-04-08T05:07:47.533Z,18.60
2023-04-08T05:10:14.359Z,17.52
2023-04-08T05:12:41.421Z,18.52
2023-04-08T05:15:08.511Z,18.63
2023-04-08T05:17:35.373Z,17.58
2023-04-08T05:20:02.813Z,16.07
2023-04-08T05:22:29.670Z,16.38
2023-04-08T05:24:56.467Z,14.70
2023-04-08T05:27:23.404Z,13.68
2023-04-08T05:29:50.344Z,13.75
2023-04-08T05:32:17.218Z,16.43
2023-04-08T05:34:44.835Z,14.05
2023-04-08T05:37:11.796Z,16.45
2023-04-08T05:39:38.620Z,14.13
2023-04-08T05:42:05.580Z,16.27
2023-04-08T05:44:32.420Z,17.40
2023-04-08T05:46:59.326Z,15.85
2023-04-08T05:49:26.367Z,13.35
2023-04-08T05:51:53.188Z,11.27
2023-04-08T05:54:20.027Z,13.57
2023-04-08T05:56:46.877Z,14.10
2023-04-08T05:59:13.661Z,13.93
2023-04-08T06:01:40.611Z,11.10
2023-04-08T06:04:07.825Z,12.43
2023-04-08T06:06:34.737Z,10.52
2023-04-08T06:09:01.605Z,11.10
2023-04-08T06:11:28.464Z,10.30
2023-04-08T06:13:55.422Z,13.48
2023-04-08T06:16:22.442Z,8.35
2023-04-08T06:18:49.845Z,10.45
2023-04-08T06:21:16.758Z,10.00
2023-04-08T06:23:43.699Z,12.25
2023-04-08T06:26:10.685Z,8.80
2023-04-08T06:28:37.563Z,11.38
2023-04-08T06:31:04.492Z,10.13
2023-04-08T06:33:31.410Z,9.03
2023-04-08T06:36:08.884Z,9.35
2023-04-08T06:38:35.797Z,7.57
2023-04-08T06:41:04.055Z,8.48
2023-04-08T06:43:31.308Z,7.25
2023-04-08T06:45:58.383Z,8.23
2023-04-08T06:48:26.033Z,7.97
2023-04-08T06:50:52.921Z,6.30
2023-04-08T06:53:19.820Z,5.70
2023-04-08T06:55:46.720Z,5.47
2023-04-08T06:58:13.514Z,6.17
2023-04-08T07:00:40.439Z,6.13
2023-04-08T07:03:07.346Z,6.32
2023-04-08T07:05:36.308Z,7.72
2023-04-08T07:08:03.485Z,7.85
2023-04-08T07:10:30.251Z,7.57
2023-04-08T07:12:57.058Z,7.32
2023-04-08T07:15:24.104Z,6.70
2023-04-08T07:17:51.013Z,6.63
2023-04-08T07:20:17.937Z,6.97
2023-04-08T07:22:44.918Z,8.33
2023-04-08T07:25:11.865Z,8.02
2023-04-08T07:27:38.704Z,8.55
2023-04-08T07:30:06.366Z,8.30
2023-04-08T07:32:34.190Z,8.07
2023-04-08T07:35:01.875Z,8.97
2023-04-08T07:37:28.925Z,10.15
2023-04-08T07:39:55.886Z,9.18
2023-04-08T07:42:22.725Z,12.32
2023-04-08T07:44:49.584Z,8.82
2023-04-08T07:47:16.379Z,10.43
2023-04-08T07:49:43.249Z,9.95
2023-04-08T07:52:10.100Z,9.15
2023-04-08T07:54:37.011Z,9.82
2023-04-08T07:57:03.968Z,10.00
2023-04-08T07:59:32.404Z,12.77
2023-04-08T08:01:59.246Z,13.65
2023-04-08T08:04:26.281Z,10.57
2023-04-08T08:06:53.368Z,10.18
2023-04-08T08:09:20.172Z,9.52
2023-04-08T08:11:47.023Z,8.90
2023-04-08T08:14:15.242Z,10.00
2023-04-08T08:16:42.195Z,8.98
2023-04-08T08:19:08.923Z,9.02
2023-04-08T08:21:39.002Z,9.85
2023-04-08T08:24:06.016Z,10.47
2023-04-08T08:26:36.030Z,10.77
2023-04-08T08:29:03.157Z,9.52
2023-04-08T08:31:30.039Z,9.02
2023-04-08T08:33:56.901Z,7.88
2023-04-08T08:36:23.909Z,8.83
2023-04-08T08:38:50.674Z,8.73
2023-04-08T08:41:17.475Z,9.68
2023-04-08T08:43:44.409Z,8.65
2023-04-08T08:46:11.503Z,8.85
2023-04-08T08:48:38.719Z,8.47
2023-04-08T08:51:12.866Z,11.15
2023-04-08T08:53:39.677Z,9.68
2023-04-08T08:58:39.305Z,9.43
2023-04-08T09:01:38.606Z,8.67
2023-04-08T09:04:20.686Z,8.85
2023-04-08T09:07:08.367Z,9.82
2023-04-08T09:09:51.677Z,8.85
2023-04-08T09:12:18.588Z,9.52
2023-04-08T09:14:45.445Z,9.80
2023-04-08T09:17:12.697Z,10.52
2023-04-08T09:19:39.713Z,8.35
2023-04-08T09:22:07.735Z,8.90
2023-04-08T09:24:35.168Z,11.65
2023-04-08T09:27:02.028Z,8.67
2023-04-08T09:29:33.107Z,10.85
2023-04-08T09:32:02.113Z,9.07
2023-04-08T09:34:30.100Z,8.20
2023-04-08T09:36:57.046Z,9.07
2023-04-08T09:39:24.367Z,9.47
2023-04-08T09:41:52.626Z,9.43
2023-04-08T09:44:21.954Z,9.70
2023-04-08T09:47:01.747Z,10.02
2023-04-08T09:49:49.381Z,8.70
2023-04-08T09:52:25.592Z,10.57
2023-04-08T09:55:21.391Z,11.18
2023-04-08T09:58:02.032Z,10.90
2023-04-08T10:00:54.182Z,12.98
2023-04-08T10:03:27.156Z,10.50
2023-04-08T10:05:54.933Z,12.50
2023-04-08T10:08:25.792Z,12.20
2023-04-08T10:10:54.249Z,12.30
2023-04-08T10:13:22.091Z,14.30
2023-04-08T10:15:48.991Z,11.15
2023-04-08T10:18:15.866Z,11.03
2023-04-08T10:20:43.111Z,9.90
2023-04-08T10:23:13.675Z,13.43
2023-04-08T10:25:42.240Z,10.40
2023-04-08T10:28:12.228Z,11.55
2023-04-08T10:30:41.203Z,12.07
2023-04-08T10:33:32.150Z,10.98
2023-04-08T10:36:12.628Z,11.50
2023-04-08T10:38:40.609Z,12.00
2023-04-08T10:41:07.455Z,12.00
2023-04-08T10:43:35.227Z,9.90
2023-04-08T10:46:02.968Z,10.73
2023-04-08T10:48:29.819Z,12.50
2023-04-08T10:51:01.590Z,12.82
2023-04-08T10:53:38.352Z,11.40
2023-04-08T10:56:12.013Z,11.30
2023-04-08T10:58:54.459Z,10.65
2023-04-08T11:01:21.462Z,11.85
2023-04-08T11:03:49.509Z,10.23
2023-04-08T11:06:17.158Z,10.15
2023-04-08T11:08:44.322Z,11.17
2023-04-08T11:11:11.853Z,9.45
2023-04-08T11:13:51.978Z,10.50
2023-04-08T11:16:20.952Z,11.32
2023-04-08T11:18:47.989Z,9.23
2023-04-08T11:21:15.521Z,8.77
2023-04-08T11:23:42.978Z,9.30
2023-04-08T11:26:11.227Z,10.02
2023-04-08T11:28:40.831Z,9.57
2023-04-08T11:31:08.146Z,9.85
2023-04-08T11:33:35.095Z,11.10
2023-04-08T11:36:02.923Z,9.32
2023-04-08T11:38:29.812Z,10.20
2023-04-08T11:40:58.246Z,10.23
2023-04-08T11:43:25.601Z,10.75
2023-04-08T11:45:52.737Z,11.73
2023-04-08T11:48:19.662Z,9.65
2023-04-08T11:50:46.548Z,9.07
2023-04-08T11:53:31.744Z,12.27
2023-04-08T11:55:58.840Z,10.20
2023-04-08T11:58:25.774Z,10.03
2023-04-08T12:00:52.816Z,7.60
2023-04-08T12:03:25.618Z,8.48
2023-04-08T12:05:52.607Z,9.90
2023-04-08T12:08:19.591Z,9.80
2023-04-08T12:10:46.522Z,8.77
2023-04-08T12:13:14.108Z,9.10
2023-04-08T12:15:40.991Z,10.43
2023-04-08T12:18:07.937Z,9.90
2023-04-08T12:23:15.383Z,9.97
2023-04-08T12:25:42.418Z,10.57
2023-04-08T12:28:12.362Z,8.93
2023-04-08T12:30:39.165Z,8.60
2023-04-08T12:33:06.241Z,8.93
2023-04-08T12:35:33.338Z,9.10
2023-04-08T12:38:00.492Z,10.40
2023-04-08T12:40:27.414Z,9.25
2023-04-08T12:42:54.634Z,8.60
2023-04-08T12:45:22.086Z,8.98
2023-04-08T12:47:49.146Z,8.80
2023-04-08T12:50:16.076Z,9.02
2023-04-08T12:52:50.380Z,8.68
2023-04-08T12:55:17.782Z,8.35
2023-04-08T12:57:44.795Z,8.88
2023-04-08T13:00:12.154Z,10.17
2023-04-08T13:02:43.785Z,9.23
2023-04-08T13:05:10.980Z,8.73
2023-04-08T13:07:37.941Z,11.52
2023-04-08T13:10:08.642Z,7.30
2023-04-08T13:12:35.563Z,8.43
2023-04-08T13:15:05.582Z,8.10
2023-04-08T13:17:33.033Z,6.50
2023-04-08T13:19:59.929Z,7.75
2023-04-08T13:22:26.879Z,8.20
2023-04-08T13:24:54.287Z,8.23
2023-04-08T13:27:21.227Z,8.13
2023-04-08T13:29:48.336Z,7.28
2023-04-08T13:32:15.347Z,7.82
2023-04-08T13:34:42.281Z,8.07
2023-04-08T13:37:14.709Z,7.77
2023-04-08T13:39:42.050Z,6.55
2023-04-08T13:42:08.862Z,7.63
2023-04-08T13:44:38.756Z,8.07
2023-04-08T13:47:05.658Z,7.88
2023-04-08T13:49:32.578Z,9.30
2023-04-08T13:51:59.438Z,7.88
2023-04-08T13:54:28.208Z,9.27
2023-04-08T13:56:57.222Z,8.60
2023-04-08T13:59:24.140Z,8.15
2023-04-08T14:01:51.439Z,7.83
2023-04-08T14:04:18.339Z,8.63
2023-04-08T14:06:45.399Z,9.20
2023-04-08T14:09:12.392Z,8.00
2023-04-08T14:11:39.301Z,8.10
2023-04-08T14:14:06.208Z,8.30
2023-04-08T14:16:33.165Z,7.75
2023-04-08T14:18:59.930Z,7.63
2023-04-08T14:21:26.746Z,8.63
2023-04-08T14:23:53.712Z,7.05
2023-04-08T14:26:20.823Z,6.63
2023-04-08T14:28:47.694Z,7.80
2023-04-08T14:31:17.109Z,7.57
2023-04-08T14:33:44.070Z,8.27
2023-04-08T14:36:12.287Z,6.35
2023-04-08T14:38:39.248Z,7.10
2023-04-08T14:41:06.034Z,7.30
2023-04-08T14:43:32.874Z,8.10
2023-04-08T14:45:59.726Z,8.05
2023-04-08T14:48:26.653Z,6.65
2023-04-08T14:50:56.179Z,7.93
2023-04-08T14:53:23.798Z,8.10
2023-04-08T14:55:50.677Z,7.57
2023-04-08T14:58:17.691Z,6.82
2023-04-08T15:00:46.062Z,5.93
2023-04-08T15:03:16.128Z,6.27
2023-04-08T15:05:43.081Z,5.85
2023-04-08T15:08:10.104Z,7.10
2023-04-08T15:10:37.136Z,6.32
2023-04-08T15:13:04.042Z,6.00
2023-04-08T15:15:31.037Z,6.40
2023-04-08T15:17:58.073Z,7.75
2023-04-08T15:20:24.883Z,5.45
2023-04-08T15:22:54.691Z,4.53
2023-04-08T15:25:21.821Z,5.47
2023-04-08T15:27:48.627Z,6.23
2023-04-08T15:30:17.158Z,5.88
2023-04-08T15:32:43.995Z,7.40
2023-04-08T15:35:10.991Z,6.20
2023-04-08T15:37:37.844Z,5.53
2023-04-08T15:40:05.231Z,5.40
2023-04-08T15:42:32.068Z,6.40
2023-04-08T15:44:58.990Z,6.70
2023-04-08T15:47:25.853Z,5.20
2023-04-08T15:49:53.455Z,4.60
2023-04-08T15:52:20.467Z,5.50
2023-04-08T15:54:47.395Z,5.82
2023-04-08T15:57:16.261Z,5.30
2023-04-08T15:59:43.429Z,5.35
2023-04-08T16:02:10.426Z,5.70
2023-04-08T16:04:37.478Z,6.17
2023-04-08T16:07:04.437Z,6.05
2023-04-08T16:09:31.322Z,5.88
2023-04-08T16:11:58.120Z,6.10
2023-04-08T16:14:25.125Z,5.13
2023-04-08T16:16:51.987Z,4.73
2023-04-08T16:19:18.710Z,6.45
2023-04-08T16:21:45.710Z,7.68
2023-04-08T16:24:12.525Z,8.05
2023-04-08T16:26:39.377Z,6.68
2023-04-08T16:29:06.333Z,9.40
2023-04-08T16:31:33.437Z,10.27
2023-04-08T16:34:00.180Z,11.27
2023-04-08T16:36:26.989Z,21.52
2023-04-08T16:38:53.858Z,11.15
2023-04-08T16:41:20.651Z,10.07
2023-04-08T16:43:47.531Z,11.98
2023-04-08T16:46:17.991Z,11.80
2023-04-08T16:48:45.112Z,8.88
2023-04-08T16:51:12.076Z,11.23
2023-04-08T16:53:38.951Z,8.37
2023-04-08T16:56:13.008Z,8.38
2023-04-08T16:58:39.873Z,7.63
2023-04-08T17:01:10.713Z,7.38
2023-04-08T17:03:37.860Z,7.97
2023-04-08T17:06:12.206Z,11.90
2023-04-08T17:08:39.814Z,9.73
2023-04-08T17:11:15.723Z,9.57
2023-04-08T17:13:44.213Z,8.40
2023-04-08T17:16:15.845Z,9.43
2023-04-08T17:18:44.570Z,14.27
2023-04-08T17:21:11.530Z,17.33
2023-04-08T17:23:38.420Z,13.07
2023-04-08T17:26:10.151Z,11.38
2023-04-08T17:28:37.422Z,12.18
2023-04-08T17:31:05.644Z,9.67
2023-04-08T17:33:32.530Z,13.48
2023-04-08T17:35:59.363Z,13.07
2023-04-08T17:38:26.180Z,10.15
2023-04-08T17:40:53.164Z,10.75
2023-04-08T17:43:20.101Z,10.13
2023-04-08T17:45:47.075Z,9.43
2023-04-08T17:48:14.026Z,10.50
2023-04-08T17:50:40.928Z,10.02
2023-04-08T17:53:07.804Z,11.88
2023-04-08T17:55:34.785Z,11.03
2023-04-08T17:58:01.607Z,12.07
2023-04-08T18:00:28.388Z,11.52
2023-04-08T18:02:55.368Z,11.18
2023-04-08T18:05:22.268Z,10.98
2023-04-08T18:07:49.138Z,10.43
2023-04-08T18:10:16.059Z,10.13
2023-04-08T18:12:43.912Z,8.52
2023-04-08T18:15:11.192Z,11.20
2023-04-08T18:17:38.263Z,9.25
2023-04-08T18:20:05.639Z,11.53
2023-04-08T18:22:32.579Z,10.40
2023-04-08T18:24:59.436Z,8.88
2023-04-08T18:27:26.311Z,11.38
2023-04-08T18:29:53.210Z,9.88
2023-04-08T18:32:20.332Z,10.13
2023-04-08T18:34:47.117Z,9.07
2023-04-08T18:37:13.986Z,7.60
2023-04-08T18:39:41.017Z,9.90
2023-04-08T18:42:07.879Z,11.98
2023-04-08T18:44:34.795Z,10.23
2023-04-08T18:47:01.732Z,10.45
2023-04-08T18:49:28.528Z,9.57
2023-04-08T18:52:02.571Z,10.60
2023-04-08T18:54:30.297Z,9.10
2023-04-08T18:56:57.078Z,9.20
2023-04-08T18:59:23.843Z,9.32
2023-04-08T19:01:50.760Z,12.52
2023-04-08T19:04:17.824Z,11.05
2023-04-08T19:06:44.844Z,10.80
2023-04-08T19:09:11.752Z,12.87
2023-04-08T19:11:38.604Z,8.57
2023-04-08T19:14:05.467Z,9.50
2023-04-08T19:16:32.406Z,9.82
2023-04-08T19:18:59.398Z,9.40
2023-04-08T19:21:26.217Z,7.53
2023-04-08T19:23:53.440Z,7.28
2023-04-08T19:26:20.540Z,7.75
2023-04-08T19:28:47.335Z,8.25
2023-04-08T19:31:20.859Z,8.23
2023-04-08T19:33:47.992Z,8.53
2023-04-08T19:36:14.875Z,10.40
2023-04-08T19:38:41.838Z,9.15
2023-04-08T19:41:08.683Z,10.10
2023-04-08T19:43:35.609Z,10.65
2023-04-08T19:46:02.629Z,11.60
2023-04-08T19:48:29.978Z,10.88
2023-04-08T19:50:56.844Z,13.35
2023-04-08T19:53:23.765Z,14.43
2023-04-08T19:55:52.949Z,16.92
2023-04-08T19:58:19.796Z,13.83
2023-04-08T20:00:46.760Z,13.82
2023-04-08T20:03:14.038Z,11.50
2023-04-08T20:05:41.169Z,10.88
2023-04-08T20:08:08.199Z,16.08
2023-04-08T20:10:34.936Z,11.70
2023-04-08T20:13:01.808Z,16.65
2023-04-08T20:15:31.573Z,15.13
2023-04-08T20:17:58.507Z,13.77
2023-04-08T20:20:25.966Z,13.82
2023-04-08T20:22:54.091Z,13.20
2023-04-08T20:25:21.031Z,12.93
2023-04-08T20:27:47.827Z,14.07
2023-04-08T20:30:14.697Z,12.63
2023-04-08T20:32:41.557Z,14.40
2023-04-08T20:35:08.590Z,18.07
2023-04-08T20:37:35.525Z,14.73
2023-04-08T20:40:02.436Z,15.50
2023-04-08T20:42:29.335Z,15.38
2023-04-08T20:44:56.379Z,14.57
2023-04-08T20:47:23.335Z,12.27
2023-04-08T20:49:53.488Z,13.13
2023-04-08T20:52:20.414Z,12.10
2023-04-08T20:54:47.355Z,10.32
2023-04-08T20:57:14.187Z,10.45
2023-04-08T20:59:41.021Z,11.00
2023-04-08T21:02:08.247Z,11.80
2023-04-08T21:04:35.092Z,11.60
2023-04-08T21:07:02.075Z,10.63
2023-04-08T21:09:29.023Z,11.27
2023-04-08T21:11:55.948Z,9.83
2023-04-08T21:14:22.946Z,11.73
2023-04-08T21:16:49.866Z,9.65
2023-04-08T21:19:16.787Z,9.73
2023-04-08T21:21:45.883Z,10.35
2023-04-08T21:24:12.908Z,8.73
2023-04-08T21:26:39.659Z,9.45
2023-04-08T21:29:06.512Z,9.57
2023-04-08T21:31:33.310Z,8.77
2023-04-08T21:34:00.280Z,8.88
2023-04-08T21:36:27.131Z,9.07
2023-04-08T21:38:54.314Z,11.13
2023-04-08T21:41:21.168Z,8.73
2023-04-08T21:43:48.027Z,8.45
2023-04-08T21:46:14.930Z,7.47
2023-04-08T21:48:41.814Z,8.37
2023-04-08T21:51:08.683Z,8.05
2023-04-08T21:53:35.565Z,9.05
2023-04-08T21:56:02.367Z,8.63
2023-04-08T21:58:29.266Z,8.38
2023-04-08T22:00:56.094Z,13.73
2023-04-08T22:03:23.169Z,9.95
2023-04-08T22:05:50.103Z,8.23
2023-04-08T22:08:16.927Z,9.38
2023-04-08T22:10:43.866Z,7.88
2023-04-08T22:13:10.905Z,7.27
2023-04-08T22:15:37.752Z,8.02
2023-04-08T22:18:04.632Z,7.38
2023-04-08T22:20:31.796Z,7.65
2023-04-08T22:22:58.651Z,6.68
2023-04-08T22:25:25.589Z,7.07
2023-04-08T22:27:52.454Z,6.47
2023-04-08T22:30:19.379Z,7.18
2023-04-08T22:32:46.287Z,7.45
2023-04-08T22:35:13.318Z,6.07
2023-04-08T22:37:40.165Z,6.90
2023-04-08T22:40:07.831Z,6.85
2023-04-08T22:42:34.668Z,7.40
2023-04-08T22:45:01.536Z,6.80
2023-04-08T22:47:28.537Z,7.30
2023-04-08T22:49:55.527Z,6.63
2023-04-08T22:52:22.387Z,6.32
2023-04-08T22:54:49.225Z,8.07
2023-04-08T22:57:16.188Z,8.10
2023-04-08T22:59:43.012Z,7.43
2023-04-08T23:02:09.914Z,7.27
2023-04-08T23:04:36.911Z,7.90
2023-04-08T23:07:03.689Z,7.78
2023-04-08T23:09:30.553Z,6.82
2023-04-08T23:11:57.560Z,6.75
2023-04-08T23:14:24.371Z,8.37
2023-04-08T23:16:51.224Z,8.02
2023-04-08T23:19:18.002Z,7.18
2023-04-08T23:21:44.921Z,7.10
2023-04-08T23:24:11.749Z,6.65
2023-04-08T23:26:38.656Z,6.53
2023-04-08T23:29:05.508Z,7.43
2023-04-08T23:31:32.453Z,6.75
2023-04-08T23:33:59.350Z,7.32
2023-04-08T23:36:26.142Z,7.03
2023-04-08T23:38:53.332Z,7.00
2023-04-08T23:41:20.334Z,6.82
2023-04-08T23:43:47.118Z,7.07
2023-04-08T23:46:14.083Z,7.68
2023-04-08T23:48:41.060Z,7.20
2023-04-08T23:51:07.912Z,7.33
2023-04-08T23:53:34.812Z,9.18
2023-04-08T23:56:09.872Z,6.80
2023-04-08T23:58:36.882Z,7.43
